sensor_id;sensor_type;location;lat;lon;timestamp;P1;durP1;ratioP1;P2;durP2;ratioP2
84923;SDS011;75286;52.218;5.180;2024-01-25T00:00:15;22.83;;;5.05;;
84923;SDS011;75286;52.218;5.180;2024-01-25T00:02:41;24.00;;;3.95;;
84923;SDS011;75286;52.218;5.180;2024-01-25T00:05:06;20.70;;;4.95;;
84923;SDS011;75286;52.218;5.180;2024-01-25T00:07:32;20.73;;;5.05;;
84923;SDS011;75286;52.218;5.180;2024-01-25T00:09:57;23.00;;;4.55;;
84923;SDS011;75286;52.218;5.180;2024-01-25T00:12:23;18.08;;;6.38;;
84923;SDS011;75286;52.218;5.180;2024-01-25T00:14:48;23.45;;;4.57;;
84923;SDS011;75286;52.218;5.180;2024-01-25T00:17:14;16.83;;;3.75;;
84923;SDS011;75286;52.218;5.180;2024-01-25T00:19:39;25.90;;;5.65;;
84923;SDS011;75286;52.218;5.180;2024-01-25T00:22:06;26.48;;;5.80;;
84923;SDS011;75286;52.218;5.180;2024-01-25T00:24:32;28.30;;;5.60;;
84923;SDS011;75286;52.218;5.180;2024-01-25T00:26:58;27.00;;;5.32;;
84923;SDS011;75286;52.218;5.180;2024-01-25T00:29:23;22.83;;;5.30;;
84923;SDS011;75286;52.218;5.180;2024-01-25T00:31:49;20.60;;;4.80;;
84923;SDS011;75286;52.218;5.180;2024-01-25T00:34:14;20.60;;;4.80;;
84923;SDS011;75286;52.218;5.180;2024-01-25T00:36:40;24.73;;;5.55;;
84923;SDS011;75286;52.218;5.180;2024-01-25T00:39:06;20.17;;;4.45;;
84923;SDS011;75286;52.218;5.180;2024-01-25T00:41:32;30.52;;;5.53;;
84923;SDS011;75286;52.218;5.180;2024-01-25T00:43:58;22.80;;;4.70;;
84923;SDS011;75286;52.218;5.180;2024-01-25T00:46:24;15.25;;;4.28;;
84923;SDS011;75286;52.218;5.180;2024-01-25T00:48:49;26.83;;;5.20;;
84923;SDS011;75286;52.218;5.180;2024-01-25T00:51:15;22.50;;;4.68;;
84923;SDS011;75286;52.218;5.180;2024-01-25T00:53:45;22.88;;;3.97;;
84923;SDS011;75286;52.218;5.180;2024-01-25T00:56:11;22.58;;;5.57;;
84923;SDS011;75286;52.218;5.180;2024-01-25T00:58:37;19.30;;;3.80;;
84923;SDS011;75286;52.218;5.180;2024-01-25T01:01:03;20.85;;;4.85;;
84923;SDS011;75286;52.218;5.180;2024-01-25T01:03:29;23.92;;;4.05;;
84923;SDS011;75286;52.218;5.180;2024-01-25T01:05:54;20.88;;;5.22;;
84923;SDS011;75286;52.218;5.180;2024-01-25T01:08:20;22.30;;;5.43;;
84923;SDS011;75286;52.218;5.180;2024-01-25T01:10:46;27.00;;;5.45;;
84923;SDS011;75286;52.218;5.180;2024-01-25T01:13:11;21.27;;;5.47;;
84923;SDS011;75286;52.218;5.180;2024-01-25T01:15:37;25.08;;;6.13;;
84923;SDS011;75286;52.218;5.180;2024-01-25T01:18:02;19.55;;;4.50;;
84923;SDS011;75286;52.218;5.180;2024-01-25T01:20:30;23.50;;;6.18;;
84923;SDS011;75286;52.218;5.180;2024-01-25T01:22:56;22.98;;;5.13;;
84923;SDS011;75286;52.218;5.180;2024-01-25T01:25:21;24.60;;;5.07;;
84923;SDS011;75286;52.218;5.180;2024-01-25T01:27:47;23.52;;;4.65;;
84923;SDS011;75286;52.218;5.180;2024-01-25T01:30:12;18.15;;;4.78;;
84923;SDS011;75286;52.218;5.180;2024-01-25T01:32:38;24.52;;;4.07;;
84923;SDS011;75286;52.218;5.180;2024-01-25T01:35:03;17.80;;;3.90;;
84923;SDS011;75286;52.218;5.180;2024-01-25T01:37:29;23.60;;;4.88;;
84923;SDS011;75286;52.218;5.180;2024-01-25T01:39:54;27.30;;;5.22;;
84923;SDS011;75286;52.218;5.180;2024-01-25T01:42:21;19.00;;;4.60;;
84923;SDS011;75286;52.218;5.180;2024-01-25T01:44:47;22.00;;;4.60;;
84923;SDS011;75286;52.218;5.180;2024-01-25T01:47:15;18.30;;;4.93;;
84923;SDS011;75286;52.218;5.180;2024-01-25T01:49:40;26.10;;;5.47;;
84923;SDS011;75286;52.218;5.180;2024-01-25T01:52:06;24.02;;;6.10;;
84923;SDS011;75286;52.218;5.180;2024-01-25T01:54:32;23.00;;;4.72;;
84923;SDS011;75286;52.218;5.180;2024-01-25T01:56:57;21.63;;;4.53;;
84923;SDS011;75286;52.218;5.180;2024-01-25T01:59:23;20.50;;;4.75;;
84923;SDS011;75286;52.218;5.180;2024-01-25T02:01:50;15.30;;;4.32;;
84923;SDS011;75286;52.218;5.180;2024-01-25T02:04:16;22.15;;;4.75;;
84923;SDS011;75286;52.218;5.180;2024-01-25T02:06:42;20.42;;;4.10;;
84923;SDS011;75286;52.218;5.180;2024-01-25T02:09:08;20.60;;;4.93;;
84923;SDS011;75286;52.218;5.180;2024-01-25T02:11:35;21.70;;;4.72;;
84923;SDS011;75286;52.218;5.180;2024-01-25T02:14:00;23.05;;;6.05;;
84923;SDS011;75286;52.218;5.180;2024-01-25T02:16:26;23.05;;;4.93;;
84923;SDS011;75286;52.218;5.180;2024-01-25T02:18:51;31.75;;;4.90;;
84923;SDS011;75286;52.218;5.180;2024-01-25T02:21:19;26.45;;;4.53;;
84923;SDS011;75286;52.218;5.180;2024-01-25T02:23:44;21.05;;;4.65;;
84923;SDS011;75286;52.218;5.180;2024-01-25T02:26:10;22.55;;;4.47;;
84923;SDS011;75286;52.218;5.180;2024-01-25T02:28:35;22.80;;;5.10;;
84923;SDS011;75286;52.218;5.180;2024-01-25T02:31:01;21.20;;;4.07;;
84923;SDS011;75286;52.218;5.180;2024-01-25T02:33:27;19.33;;;4.65;;
84923;SDS011;75286;52.218;5.180;2024-01-25T02:35:53;18.20;;;4.95;;
84923;SDS011;75286;52.218;5.180;2024-01-25T02:38:18;23.30;;;4.93;;
84923;SDS011;75286;52.218;5.180;2024-01-25T02:40:43;17.08;;;4.25;;
84923;SDS011;75286;52.218;5.180;2024-01-25T02:43:12;18.05;;;3.88;;
84923;SDS011;75286;52.218;5.180;2024-01-25T02:45:37;21.17;;;6.22;;
84923;SDS011;75286;52.218;5.180;2024-01-25T02:48:03;15.43;;;3.80;;
84923;SDS011;75286;52.218;5.180;2024-01-25T02:50:29;20.00;;;4.13;;
84923;SDS011;75286;52.218;5.180;2024-01-25T02:52:54;22.80;;;4.68;;
84923;SDS011;75286;52.218;5.180;2024-01-25T02:55:20;25.08;;;4.40;;
84923;SDS011;75286;52.218;5.180;2024-01-25T02:57:45;20.95;;;4.65;;
84923;SDS011;75286;52.218;5.180;2024-01-25T03:00:11;21.42;;;4.30;;
84923;SDS011;75286;52.218;5.180;2024-01-25T03:02:37;22.98;;;4.93;;
84923;SDS011;75286;52.218;5.180;2024-01-25T03:05:02;25.70;;;5.47;;
84923;SDS011;75286;52.218;5.180;2024-01-25T03:07:28;25.25;;;4.85;;
84923;SDS011;75286;52.218;5.180;2024-01-25T03:09:53;22.23;;;4.38;;
84923;SDS011;75286;52.218;5.180;2024-01-25T03:12:19;18.13;;;4.78;;
84923;SDS011;75286;52.218;5.180;2024-01-25T03:14:45;20.00;;;5.15;;
84923;SDS011;75286;52.218;5.180;2024-01-25T03:17:10;24.88;;;4.13;;
84923;SDS011;75286;52.218;5.180;2024-01-25T03:19:37;24.02;;;5.18;;
84923;SDS011;75286;52.218;5.180;2024-01-25T03:22:03;19.75;;;4.88;;
84923;SDS011;75286;52.218;5.180;2024-01-25T03:24:28;22.75;;;5.45;;
84923;SDS011;75286;52.218;5.180;2024-01-25T03:26:56;22.50;;;5.35;;
84923;SDS011;75286;52.218;5.180;2024-01-25T03:29:21;21.75;;;4.88;;
84923;SDS011;75286;52.218;5.180;2024-01-25T03:31:47;19.77;;;4.35;;
84923;SDS011;75286;52.218;5.180;2024-01-25T03:34:12;24.50;;;4.53;;
84923;SDS011;75286;52.218;5.180;2024-01-25T03:36:38;25.95;;;5.72;;
84923;SDS011;75286;52.218;5.180;2024-01-25T03:39:04;23.70;;;4.93;;
84923;SDS011;75286;52.218;5.180;2024-01-25T03:41:30;20.02;;;5.25;;
84923;SDS011;75286;52.218;5.180;2024-01-25T03:43:55;22.27;;;4.72;;
84923;SDS011;75286;52.218;5.180;2024-01-25T03:46:21;19.05;;;5.90;;
84923;SDS011;75286;52.218;5.180;2024-01-25T03:48:46;23.38;;;4.82;;
84923;SDS011;75286;52.218;5.180;2024-01-25T03:51:12;19.92;;;4.32;;
84923;SDS011;75286;52.218;5.180;2024-01-25T03:53:37;18.45;;;4.90;;
84923;SDS011;75286;52.218;5.180;2024-01-25T03:56:02;30.23;;;4.57;;
84923;SDS011;75286;52.218;5.180;2024-01-25T03:58:28;19.50;;;4.50;;
84923;SDS011;75286;52.218;5.180;2024-01-25T04:00:53;24.60;;;4.75;;
84923;SDS011;75286;52.218;5.180;2024-01-25T04:03:19;22.58;;;5.07;;
84923;SDS011;75286;52.218;5.180;2024-01-25T04:05:44;22.42;;;4.25;;
84923;SDS011;75286;52.218;5.180;2024-01-25T04:08:10;16.95;;;4.32;;
84923;SDS011;75286;52.218;5.180;2024-01-25T04:10:35;22.77;;;4.78;;
84923;SDS011;75286;52.218;5.180;2024-01-25T04:13:01;20.80;;;4.38;;
84923;SDS011;75286;52.218;5.180;2024-01-25T04:15:26;21.58;;;4.32;;
84923;SDS011;75286;52.218;5.180;2024-01-25T04:17:52;24.83;;;4.63;;
84923;SDS011;75286;52.218;5.180;2024-01-25T04:20:21;20.73;;;4.93;;
84923;SDS011;75286;52.218;5.180;2024-01-25T04:22:46;24.63;;;5.10;;
84923;SDS011;75286;52.218;5.180;2024-01-25T04:25:12;28.27;;;5.32;;
84923;SDS011;75286;52.218;5.180;2024-01-25T04:27:37;20.23;;;4.57;;
84923;SDS011;75286;52.218;5.180;2024-01-25T04:30:06;24.00;;;5.65;;
84923;SDS011;75286;52.218;5.180;2024-01-25T04:32:32;18.35;;;4.65;;
84923;SDS011;75286;52.218;5.180;2024-01-25T04:34:58;27.50;;;5.82;;
84923;SDS011;75286;52.218;5.180;2024-01-25T04:37:23;22.60;;;5.78;;
84923;SDS011;75286;52.218;5.180;2024-01-25T04:39:49;22.88;;;4.88;;
84923;SDS011;75286;52.218;5.180;2024-01-25T04:42:14;26.48;;;4.95;;
84923;SDS011;75286;52.218;5.180;2024-01-25T04:44:39;21.75;;;5.18;;
84923;SDS011;75286;52.218;5.180;2024-01-25T04:47:05;22.77;;;4.88;;
84923;SDS011;75286;52.218;5.180;2024-01-25T04:49:30;22.75;;;7.05;;
84923;SDS011;75286;52.218;5.180;2024-01-25T04:51:56;17.00;;;4.60;;
84923;SDS011;75286;52.218;5.180;2024-01-25T04:54:21;19.98;;;4.18;;
84923;SDS011;75286;52.218;5.180;2024-01-25T04:56:46;17.85;;;4.80;;
84923;SDS011;75286;52.218;5.180;2024-01-25T04:59:12;19.77;;;4.90;;
84923;SDS011;75286;52.218;5.180;2024-01-25T05:01:37;25.65;;;4.82;;
84923;SDS011;75286;52.218;5.180;2024-01-25T05:04:03;25.02;;;5.88;;
84923;SDS011;75286;52.218;5.180;2024-01-25T05:06:29;21.35;;;4.15;;
84923;SDS011;75286;52.218;5.180;2024-01-25T05:08:54;22.27;;;4.32;;
84923;SDS011;75286;52.218;5.180;2024-01-25T05:11:19;30.10;;;7.85;;
84923;SDS011;75286;52.218;5.180;2024-01-25T05:13:45;27.15;;;7.90;;
84923;SDS011;75286;52.218;5.180;2024-01-25T05:16:10;27.65;;;4.68;;
84923;SDS011;75286;52.218;5.180;2024-01-25T05:18:36;22.95;;;5.13;;
84923;SDS011;75286;52.218;5.180;2024-01-25T05:21:02;20.20;;;6.35;;
84923;SDS011;75286;52.218;5.180;2024-01-25T05:23:27;21.80;;;4.28;;
84923;SDS011;75286;52.218;5.180;2024-01-25T05:25:52;25.65;;;4.40;;
84923;SDS011;75286;52.218;5.180;2024-01-25T05:28:18;27.85;;;5.00;;
84923;SDS011;75286;52.218;5.180;2024-01-25T05:30:43;13.63;;;4.50;;
84923;SDS011;75286;52.218;5.180;2024-01-25T05:33:09;21.30;;;5.45;;
84923;SDS011;75286;52.218;5.180;2024-01-25T05:35:34;27.23;;;6.10;;
84923;SDS011;75286;52.218;5.180;2024-01-25T05:38:00;20.17;;;6.25;;
84923;SDS011;75286;52.218;5.180;2024-01-25T05:40:25;19.40;;;3.70;;
84923;SDS011;75286;52.218;5.180;2024-01-25T05:42:51;19.20;;;4.40;;
84923;SDS011;75286;52.218;5.180;2024-01-25T05:45:16;20.10;;;5.07;;
84923;SDS011;75286;52.218;5.180;2024-01-25T05:47:45;18.55;;;3.90;;
84923;SDS011;75286;52.218;5.180;2024-01-25T05:50:10;16.95;;;3.67;;
84923;SDS011;75286;52.218;5.180;2024-01-25T05:52:36;23.05;;;4.10;;
84923;SDS011;75286;52.218;5.180;2024-01-25T05:55:03;20.52;;;5.15;;
84923;SDS011;75286;52.218;5.180;2024-01-25T05:57:29;24.67;;;5.00;;
84923;SDS011;75286;52.218;5.180;2024-01-25T05:59:54;21.23;;;5.72;;
84923;SDS011;75286;52.218;5.180;2024-01-25T06:02:20;20.55;;;5.63;;
84923;SDS011;75286;52.218;5.180;2024-01-25T06:04:45;19.27;;;4.32;;
84923;SDS011;75286;52.218;5.180;2024-01-25T06:07:10;21.38;;;4.63;;
84923;SDS011;75286;52.218;5.180;2024-01-25T06:09:36;31.42;;;5.40;;
84923;SDS011;75286;52.218;5.180;2024-01-25T06:12:01;17.17;;;4.03;;
84923;SDS011;75286;52.218;5.180;2024-01-25T06:14:28;18.85;;;4.30;;
84923;SDS011;75286;52.218;5.180;2024-01-25T06:16:54;16.60;;;4.20;;
84923;SDS011;75286;52.218;5.180;2024-01-25T06:19:19;17.60;;;6.03;;
84923;SDS011;75286;52.218;5.180;2024-01-25T06:21:45;27.90;;;5.07;;
84923;SDS011;75286;52.218;5.180;2024-01-25T06:24:10;17.90;;;4.70;;
84923;SDS011;75286;52.218;5.180;2024-01-25T06:26:35;21.88;;;4.97;;
84923;SDS011;75286;52.218;5.180;2024-01-25T06:29:01;23.73;;;5.47;;
84923;SDS011;75286;52.218;5.180;2024-01-25T06:31:26;29.00;;;5.45;;
84923;SDS011;75286;52.218;5.180;2024-01-25T06:33:52;22.85;;;5.38;;
84923;SDS011;75286;52.218;5.180;2024-01-25T06:36:18;20.65;;;5.10;;
84923;SDS011;75286;52.218;5.180;2024-01-25T06:38:44;22.33;;;5.03;;
84923;SDS011;75286;52.218;5.180;2024-01-25T06:41:10;20.33;;;5.57;;
84923;SDS011;75286;52.218;5.180;2024-01-25T06:43:35;27.45;;;5.20;;
84923;SDS011;75286;52.218;5.180;2024-01-25T06:46:00;25.05;;;4.95;;
84923;SDS011;75286;52.218;5.180;2024-01-25T06:48:26;22.58;;;4.53;;
84923;SDS011;75286;52.218;5.180;2024-01-25T06:50:51;21.63;;;5.13;;
84923;SDS011;75286;52.218;5.180;2024-01-25T06:53:16;27.88;;;6.75;;
84923;SDS011;75286;52.218;5.180;2024-01-25T06:55:42;23.13;;;5.55;;
84923;SDS011;75286;52.218;5.180;2024-01-25T06:58:07;19.90;;;5.57;;
84923;SDS011;75286;52.218;5.180;2024-01-25T07:00:33;29.25;;;5.68;;
84923;SDS011;75286;52.218;5.180;2024-01-25T07:02:58;25.65;;;5.88;;
84923;SDS011;75286;52.218;5.180;2024-01-25T07:05:24;19.65;;;4.68;;
84923;SDS011;75286;52.218;5.180;2024-01-25T07:07:49;23.38;;;5.88;;
84923;SDS011;75286;52.218;5.180;2024-01-25T07:10:15;22.58;;;5.40;;
84923;SDS011;75286;52.218;5.180;2024-01-25T07:12:40;20.67;;;5.70;;
84923;SDS011;75286;52.218;5.180;2024-01-25T07:15:06;21.70;;;5.30;;
84923;SDS011;75286;52.218;5.180;2024-01-25T07:17:31;22.75;;;5.43;;
84923;SDS011;75286;52.218;5.180;2024-01-25T07:19:57;22.60;;;4.75;;
84923;SDS011;75286;52.218;5.180;2024-01-25T07:22:22;25.27;;;5.82;;
84923;SDS011;75286;52.218;5.180;2024-01-25T07:24:48;19.17;;;6.28;;
84923;SDS011;75286;52.218;5.180;2024-01-25T07:27:13;24.25;;;5.45;;
84923;SDS011;75286;52.218;5.180;2024-01-25T07:29:39;25.08;;;5.97;;
84923;SDS011;75286;52.218;5.180;2024-01-25T07:32:04;19.15;;;4.90;;
84923;SDS011;75286;52.218;5.180;2024-01-25T07:34:30;17.52;;;4.72;;
84923;SDS011;75286;52.218;5.180;2024-01-25T07:36:55;19.00;;;4.65;;
84923;SDS011;75286;52.218;5.180;2024-01-25T07:39:21;26.67;;;6.32;;
84923;SDS011;75286;52.218;5.180;2024-01-25T07:41:47;27.60;;;6.28;;
84923;SDS011;75286;52.218;5.180;2024-01-25T07:44:12;24.27;;;6.57;;
84923;SDS011;75286;52.218;5.180;2024-01-25T07:46:38;24.45;;;5.50;;
84923;SDS011;75286;52.218;5.180;2024-01-25T07:49:04;18.17;;;6.82;;
84923;SDS011;75286;52.218;5.180;2024-01-25T07:51:30;29.95;;;8.43;;
84923;SDS011;75286;52.218;5.180;2024-01-25T07:53:55;24.20;;;6.85;;
84923;SDS011;75286;52.218;5.180;2024-01-25T07:56:20;25.25;;;8.73;;
84923;SDS011;75286;52.218;5.180;2024-01-25T07:58:47;22.42;;;6.45;;
84923;SDS011;75286;52.218;5.180;2024-01-25T08:01:17;20.77;;;6.05;;
84923;SDS011;75286;52.218;5.180;2024-01-25T08:03:42;27.17;;;6.50;;
84923;SDS011;75286;52.218;5.180;2024-01-25T08:06:08;26.67;;;6.40;;
84923;SDS011;75286;52.218;5.180;2024-01-25T08:08:33;20.52;;;6.88;;
84923;SDS011;75286;52.218;5.180;2024-01-25T08:10:59;24.50;;;8.32;;
84923;SDS011;75286;52.218;5.180;2024-01-25T08:13:24;21.55;;;7.35;;
84923;SDS011;75286;52.218;5.180;2024-01-25T08:15:50;25.55;;;7.88;;
84923;SDS011;75286;52.218;5.180;2024-01-25T08:18:16;25.55;;;9.68;;
84923;SDS011;75286;52.218;5.180;2024-01-25T08:20:44;26.02;;;8.23;;
84923;SDS011;75286;52.218;5.180;2024-01-25T08:23:10;29.58;;;9.82;;
84923;SDS011;75286;52.218;5.180;2024-01-25T08:25:35;37.40;;;10.82;;
84923;SDS011;75286;52.218;5.180;2024-01-25T08:28:01;31.88;;;9.43;;
84923;SDS011;75286;52.218;5.180;2024-01-25T08:30:26;30.90;;;9.20;;
84923;SDS011;75286;52.218;5.180;2024-01-25T08:32:51;23.15;;;9.07;;
84923;SDS011;75286;52.218;5.180;2024-01-25T08:35:17;23.13;;;9.43;;
84923;SDS011;75286;52.218;5.180;2024-01-25T08:37:42;25.83;;;9.60;;
84923;SDS011;75286;52.218;5.180;2024-01-25T08:40:08;27.85;;;9.40;;
84923;SDS011;75286;52.218;5.180;2024-01-25T08:42:34;31.30;;;8.73;;
84923;SDS011;75286;52.218;5.180;2024-01-25T08:45:00;36.53;;;9.05;;
84923;SDS011;75286;52.218;5.180;2024-01-25T08:47:26;27.92;;;8.05;;
84923;SDS011;75286;52.218;5.180;2024-01-25T08:49:51;21.25;;;8.85;;
84923;SDS011;75286;52.218;5.180;2024-01-25T08:52:16;25.80;;;7.72;;
84923;SDS011;75286;52.218;5.180;2024-01-25T08:54:42;18.63;;;6.93;;
84923;SDS011;75286;52.218;5.180;2024-01-25T08:57:08;24.00;;;8.15;;
84923;SDS011;75286;52.218;5.180;2024-01-25T08:59:33;22.52;;;6.78;;
84923;SDS011;75286;52.218;5.180;2024-01-25T09:02:03;24.40;;;6.22;;
84923;SDS011;75286;52.218;5.180;2024-01-25T09:04:31;25.30;;;8.90;;
84923;SDS011;75286;52.218;5.180;2024-01-25T09:06:57;22.27;;;7.38;;
84923;SDS011;75286;52.218;5.180;2024-01-25T09:09:23;17.00;;;6.82;;
84923;SDS011;75286;52.218;5.180;2024-01-25T09:11:48;19.33;;;6.55;;
84923;SDS011;75286;52.218;5.180;2024-01-25T09:14:13;27.95;;;6.93;;
84923;SDS011;75286;52.218;5.180;2024-01-25T09:16:39;22.33;;;6.18;;
84923;SDS011;75286;52.218;5.180;2024-01-25T09:19:04;23.40;;;6.13;;
84923;SDS011;75286;52.218;5.180;2024-01-25T09:21:30;21.80;;;6.65;;
84923;SDS011;75286;52.218;5.180;2024-01-25T09:23:55;24.30;;;6.28;;
84923;SDS011;75286;52.218;5.180;2024-01-25T09:26:21;22.33;;;6.88;;
84923;SDS011;75286;52.218;5.180;2024-01-25T09:28:46;20.40;;;6.15;;
84923;SDS011;75286;52.218;5.180;2024-01-25T09:31:11;30.30;;;7.82;;
84923;SDS011;75286;52.218;5.180;2024-01-25T09:33:37;24.33;;;6.28;;
84923;SDS011;75286;52.218;5.180;2024-01-25T09:36:02;17.33;;;6.30;;
84923;SDS011;75286;52.218;5.180;2024-01-25T09:38:28;18.88;;;5.65;;
84923;SDS011;75286;52.218;5.180;2024-01-25T09:40:53;27.90;;;5.60;;
84923;SDS011;75286;52.218;5.180;2024-01-25T09:43:19;19.73;;;4.93;;
84923;SDS011;75286;52.218;5.180;2024-01-25T09:45:52;24.30;;;6.05;;
84923;SDS011;75286;52.218;5.180;2024-01-25T09:48:22;22.88;;;6.32;;
84923;SDS011;75286;52.218;5.180;2024-01-25T09:50:48;20.25;;;6.28;;
84923;SDS011;75286;52.218;5.180;2024-01-25T09:53:16;25.25;;;7.35;;
84923;SDS011;75286;52.218;5.180;2024-01-25T09:55:51;20.27;;;5.88;;
84923;SDS011;75286;52.218;5.180;2024-01-25T09:58:20;26.27;;;7.03;;
84923;SDS011;75286;52.218;5.180;2024-01-25T10:00:46;20.10;;;6.50;;
84923;SDS011;75286;52.218;5.180;2024-01-25T10:03:12;29.50;;;6.30;;
84923;SDS011;75286;52.218;5.180;2024-01-25T10:05:37;22.63;;;6.40;;
84923;SDS011;75286;52.218;5.180;2024-01-25T10:08:03;17.00;;;5.82;;
84923;SDS011;75286;52.218;5.180;2024-01-25T10:10:31;20.95;;;5.22;;
84923;SDS011;75286;52.218;5.180;2024-01-25T10:12:57;16.92;;;4.72;;
84923;SDS011;75286;52.218;5.180;2024-01-25T10:15:23;24.77;;;7.25;;
84923;SDS011;75286;52.218;5.180;2024-01-25T10:17:49;33.03;;;6.63;;
84923;SDS011;75286;52.218;5.180;2024-01-25T10:20:14;21.55;;;5.57;;
84923;SDS011;75286;52.218;5.180;2024-01-25T10:22:41;17.58;;;6.38;;
84923;SDS011;75286;52.218;5.180;2024-01-25T10:25:13;18.95;;;6.07;;
84923;SDS011;75286;52.218;5.180;2024-01-25T10:27:39;21.02;;;5.93;;
84923;SDS011;75286;52.218;5.180;2024-01-25T10:30:06;22.95;;;5.20;;
84923;SDS011;75286;52.218;5.180;2024-01-25T10:32:32;26.85;;;6.53;;
84923;SDS011;75286;52.218;5.180;2024-01-25T10:34:59;25.02;;;5.82;;
84923;SDS011;75286;52.218;5.180;2024-01-25T10:37:26;18.77;;;5.88;;
84923;SDS011;75286;52.218;5.180;2024-01-25T10:39:54;20.15;;;5.78;;
84923;SDS011;75286;52.218;5.180;2024-01-25T10:42:24;17.55;;;5.57;;
84923;SDS011;75286;52.218;5.180;2024-01-25T10:44:50;17.45;;;5.25;;
84923;SDS011;75286;52.218;5.180;2024-01-25T10:47:16;26.20;;;7.35;;
84923;SDS011;75286;52.218;5.180;2024-01-25T10:49:42;19.60;;;6.40;;
84923;SDS011;75286;52.218;5.180;2024-01-25T10:52:11;21.70;;;6.68;;
84923;SDS011;75286;52.218;5.180;2024-01-25T10:54:37;22.83;;;7.07;;
84923;SDS011;75286;52.218;5.180;2024-01-25T10:57:04;20.85;;;7.20;;
84923;SDS011;75286;52.218;5.180;2024-01-25T10:59:30;22.13;;;6.70;;
84923;SDS011;75286;52.218;5.180;2024-01-25T11:01:56;21.80;;;7.32;;
84923;SDS011;75286;52.218;5.180;2024-01-25T11:04:21;24.40;;;6.60;;
84923;SDS011;75286;52.218;5.180;2024-01-25T11:06:47;21.40;;;6.07;;
84923;SDS011;75286;52.218;5.180;2024-01-25T11:09:17;25.58;;;6.45;;
84923;SDS011;75286;52.218;5.180;2024-01-25T11:11:47;21.15;;;6.13;;
84923;SDS011;75286;52.218;5.180;2024-01-25T11:14:14;20.98;;;6.43;;
84923;SDS011;75286;52.218;5.180;2024-01-25T11:16:41;30.65;;;7.03;;
84923;SDS011;75286;52.218;5.180;2024-01-25T11:19:15;28.17;;;6.85;;
84923;SDS011;75286;52.218;5.180;2024-01-25T11:21:43;21.40;;;6.47;;
84923;SDS011;75286;52.218;5.180;2024-01-25T11:26:39;22.73;;;6.63;;
84923;SDS011;75286;52.218;5.180;2024-01-25T11:29:04;23.95;;;6.18;;
84923;SDS011;75286;52.218;5.180;2024-01-25T11:31:30;31.55;;;6.68;;
84923;SDS011;75286;52.218;5.180;2024-01-25T11:33:57;21.08;;;6.00;;
84923;SDS011;75286;52.218;5.180;2024-01-25T11:36:24;18.05;;;5.05;;
84923;SDS011;75286;52.218;5.180;2024-01-25T11:38:49;29.00;;;6.93;;
84923;SDS011;75286;52.218;5.180;2024-01-25T11:41:15;16.10;;;5.40;;
84923;SDS011;75286;52.218;5.180;2024-01-25T11:43:40;14.95;;;5.10;;
84923;SDS011;75286;52.218;5.180;2024-01-25T11:46:06;22.58;;;6.07;;
84923;SDS011;75286;52.218;5.180;2024-01-25T11:48:38;20.17;;;5.07;;
84923;SDS011;75286;52.218;5.180;2024-01-25T11:51:03;28.92;;;6.15;;
84923;SDS011;75286;52.218;5.180;2024-01-25T11:53:29;26.42;;;7.35;;
84923;SDS011;75286;52.218;5.180;2024-01-25T11:55:55;19.85;;;6.03;;
84923;SDS011;75286;52.218;5.180;2024-01-25T11:58:21;20.45;;;6.07;;
84923;SDS011;75286;52.218;5.180;2024-01-25T12:00:47;20.00;;;5.18;;
84923;SDS011;75286;52.218;5.180;2024-01-25T12:03:12;26.17;;;6.82;;
84923;SDS011;75286;52.218;5.180;2024-01-25T12:05:39;20.75;;;6.43;;
84923;SDS011;75286;52.218;5.180;2024-01-25T12:08:08;29.85;;;5.60;;
84923;SDS011;75286;52.218;5.180;2024-01-25T12:10:34;21.98;;;6.22;;
84923;SDS011;75286;52.218;5.180;2024-01-25T12:13:03;19.15;;;5.15;;
84923;SDS011;75286;52.218;5.180;2024-01-25T12:15:31;19.77;;;5.70;;
84923;SDS011;75286;52.218;5.180;2024-01-25T12:17:57;20.20;;;5.00;;
84923;SDS011;75286;52.218;5.180;2024-01-25T12:20:24;22.08;;;6.03;;
84923;SDS011;75286;52.218;5.180;2024-01-25T12:22:51;26.90;;;6.30;;
84923;SDS011;75286;52.218;5.180;2024-01-25T12:25:17;21.05;;;5.57;;
84923;SDS011;75286;52.218;5.180;2024-01-25T12:27:43;18.02;;;4.68;;
84923;SDS011;75286;52.218;5.180;2024-01-25T12:30:10;26.25;;;6.10;;
84923;SDS011;75286;52.218;5.180;2024-01-25T12:32:36;29.92;;;6.05;;
84923;SDS011;75286;52.218;5.180;2024-01-25T12:35:01;27.20;;;6.35;;
84923;SDS011;75286;52.218;5.180;2024-01-25T12:37:27;22.75;;;5.80;;
84923;SDS011;75286;52.218;5.180;2024-01-25T12:39:53;28.02;;;7.25;;
84923;SDS011;75286;52.218;5.180;2024-01-25T12:42:19;28.15;;;7.82;;
84923;SDS011;75286;52.218;5.180;2024-01-25T12:44:45;23.15;;;7.20;;
84923;SDS011;75286;52.218;5.180;2024-01-25T12:47:11;22.77;;;6.45;;
84923;SDS011;75286;52.218;5.180;2024-01-25T12:49:41;25.83;;;6.25;;
84923;SDS011;75286;52.218;5.180;2024-01-25T12:52:11;30.83;;;6.35;;
84923;SDS011;75286;52.218;5.180;2024-01-25T12:54:38;27.98;;;6.28;;
84923;SDS011;75286;52.218;5.180;2024-01-25T12:57:04;24.45;;;7.43;;
84923;SDS011;75286;52.218;5.180;2024-01-25T12:59:30;24.27;;;7.78;;
84923;SDS011;75286;52.218;5.180;2024-01-25T13:01:56;23.58;;;7.35;;
84923;SDS011;75286;52.218;5.180;2024-01-25T13:04:22;21.63;;;5.35;;
84923;SDS011;75286;52.218;5.180;2024-01-25T13:06:48;20.15;;;7.38;;
84923;SDS011;75286;52.218;5.180;2024-01-25T13:09:14;23.75;;;6.45;;
84923;SDS011;75286;52.218;5.180;2024-01-25T13:11:41;18.50;;;5.72;;
84923;SDS011;75286;52.218;5.180;2024-01-25T13:14:06;29.15;;;6.93;;
84923;SDS011;75286;52.218;5.180;2024-01-25T13:16:32;24.52;;;7.43;;
84923;SDS011;75286;52.218;5.180;2024-01-25T13:18:58;29.20;;;8.82;;
84923;SDS011;75286;52.218;5.180;2024-01-25T13:21:23;19.30;;;6.25;;
84923;SDS011;75286;52.218;5.180;2024-01-25T13:23:50;21.52;;;6.25;;
84923;SDS011;75286;52.218;5.180;2024-01-25T13:26:15;17.95;;;6.80;;
84923;SDS011;75286;52.218;5.180;2024-01-25T13:28:41;28.02;;;7.93;;
84923;SDS011;75286;52.218;5.180;2024-01-25T13:31:06;26.13;;;6.53;;
84923;SDS011;75286;52.218;5.180;2024-01-25T13:33:32;21.42;;;6.38;;
84923;SDS011;75286;52.218;5.180;2024-01-25T13:35:57;20.20;;;6.15;;
84923;SDS011;75286;52.218;5.180;2024-01-25T13:38:22;22.77;;;7.43;;
84923;SDS011;75286;52.218;5.180;2024-01-25T13:40:48;29.60;;;6.43;;
84923;SDS011;75286;52.218;5.180;2024-01-25T13:43:15;22.95;;;6.18;;
84923;SDS011;75286;52.218;5.180;2024-01-25T13:45:41;24.17;;;7.25;;
84923;SDS011;75286;52.218;5.180;2024-01-25T13:48:06;20.65;;;6.03;;
84923;SDS011;75286;52.218;5.180;2024-01-25T13:50:32;18.88;;;6.18;;
84923;SDS011;75286;52.218;5.180;2024-01-25T13:52:57;26.88;;;7.50;;
84923;SDS011;75286;52.218;5.180;2024-01-25T13:55:22;22.40;;;6.47;;
84923;SDS011;75286;52.218;5.180;2024-01-25T13:57:48;23.70;;;6.32;;
84923;SDS011;75286;52.218;5.180;2024-01-25T14:00:13;20.67;;;6.20;;
84923;SDS011;75286;52.218;5.180;2024-01-25T14:02:39;27.02;;;6.75;;
84923;SDS011;75286;52.218;5.180;2024-01-25T14:05:09;22.10;;;7.07;;
84923;SDS011;75286;52.218;5.180;2024-01-25T14:07:34;27.38;;;6.63;;
84923;SDS011;75286;52.218;5.180;2024-01-25T14:10:00;28.15;;;6.60;;
84923;SDS011;75286;52.218;5.180;2024-01-25T14:12:25;20.25;;;5.93;;
84923;SDS011;75286;52.218;5.180;2024-01-25T14:14:50;27.92;;;6.85;;
84923;SDS011;75286;52.218;5.180;2024-01-25T14:17:16;27.27;;;7.35;;
84923;SDS011;75286;52.218;5.180;2024-01-25T14:19:41;23.23;;;7.35;;
84923;SDS011;75286;52.218;5.180;2024-01-25T14:22:06;24.42;;;6.78;;
84923;SDS011;75286;52.218;5.180;2024-01-25T14:24:32;19.65;;;5.85;;
84923;SDS011;75286;52.218;5.180;2024-01-25T14:26:57;26.90;;;6.97;;